sensor_id;sensor_type;location;lat;lon;timestamp;P1;durP1;ratioP1;P2;durP2;ratioP2
76475;SDS011;65308;50.078;14.854;2023-09-19T00:00:15;2.50;;;1.52;;
76475;SDS011;65308;50.078;14.854;2023-09-19T00:02:46;2.40;;;1.20;;
76475;SDS011;65308;50.078;14.854;2023-09-19T00:05:18;3.05;;;1.40;;
76475;SDS011;65308;50.078;14.854;2023-09-19T00:07:49;2.53;;;1.30;;
76475;SDS011;65308;50.078;14.854;2023-09-19T00:10:16;2.45;;;1.45;;
76475;SDS011;65308;50.078;14.854;2023-09-19T00:12:44;4.40;;;1.35;;
76475;SDS011;65308;50.078;14.854;2023-09-19T00:15:11;2.22;;;1.30;;
76475;SDS011;65308;50.078;14.854;2023-09-19T00:17:37;2.08;;;1.30;;
76475;SDS011;65308;50.078;14.854;2023-09-19T00:20:07;2.85;;;1.50;;
76475;SDS011;65308;50.078;14.854;2023-09-19T00:22:38;3.35;;;1.48;;
76475;SDS011;65308;50.078;14.854;2023-09-19T00:25:06;2.17;;;1.30;;
76475;SDS011;65308;50.078;14.854;2023-09-19T00:27:35;3.05;;;1.50;;
76475;SDS011;65308;50.078;14.854;2023-09-19T00:30:04;2.63;;;1.33;;
76475;SDS011;65308;50.078;14.854;2023-09-19T00:32:33;2.00;;;1.20;;
76475;SDS011;65308;50.078;14.854;2023-09-19T00:35:02;1.67;;;1.30;;
76475;SDS011;65308;50.078;14.854;2023-09-19T00:39:58;1.70;;;1.33;;
76475;SDS011;65308;50.078;14.854;2023-09-19T00:42:25;3.90;;;1.52;;
76475;SDS011;65308;50.078;14.854;2023-09-19T00:44:52;5.68;;;1.50;;
76475;SDS011;65308;50.078;14.854;2023-09-19T00:47:18;2.47;;;1.30;;
76475;SDS011;65308;50.078;14.854;2023-09-19T00:49:45;3.40;;;1.35;;
76475;SDS011;65308;50.078;14.854;2023-09-19T00:52:15;1.65;;;1.20;;
76475;SDS011;65308;50.078;14.854;2023-09-19T00:54:46;2.83;;;1.67;;
76475;SDS011;65308;50.078;14.854;2023-09-19T00:57:13;1.83;;;1.15;;
76475;SDS011;65308;50.078;14.854;2023-09-19T00:59:44;1.88;;;1.13;;
76475;SDS011;65308;50.078;14.854;2023-09-19T01:02:13;1.95;;;1.30;;
76475;SDS011;65308;50.078;14.854;2023-09-19T01:04:40;2.88;;;1.33;;
76475;SDS011;65308;50.078;14.854;2023-09-19T01:07:08;2.40;;;1.40;;
76475;SDS011;65308;50.078;14.854;2023-09-19T01:09:36;4.18;;;1.33;;
76475;SDS011;65308;50.078;14.854;2023-09-19T01:12:06;2.50;;;1.30;;
76475;SDS011;65308;50.078;14.854;2023-09-19T01:14:38;4.03;;;1.40;;
76475;SDS011;65308;50.078;14.854;2023-09-19T01:17:09;2.05;;;1.30;;
76475;SDS011;65308;50.078;14.854;2023-09-19T01:19:57;2.60;;;1.50;;
76475;SDS011;65308;50.078;14.854;2023-09-19T01:22:37;2.80;;;1.40;;
76475;SDS011;65308;50.078;14.854;2023-09-19T01:28:20;3.45;;;1.40;;
76475;SDS011;65308;50.078;14.854;2023-09-19T01:30:57;2.88;;;1.15;;
76475;SDS011;65308;50.078;14.854;2023-09-19T01:33:28;2.88;;;1.33;;
76475;SDS011;65308;50.078;14.854;2023-09-19T01:35:59;1.65;;;1.00;;
76475;SDS011;65308;50.078;14.854;2023-09-19T01:38:26;2.33;;;1.30;;
76475;SDS011;65308;50.078;14.854;2023-09-19T01:40:56;1.95;;;1.20;;
76475;SDS011;65308;50.078;14.854;2023-09-19T01:43:30;2.35;;;1.10;;
76475;SDS011;65308;50.078;14.854;2023-09-19T01:46:04;2.80;;;1.30;;
76475;SDS011;65308;50.078;14.854;2023-09-19T01:48:38;1.27;;;1.00;;
76475;SDS011;65308;50.078;14.854;2023-09-19T01:51:13;2.55;;;1.20;;
76475;SDS011;65308;50.078;14.854;2023-09-19T01:53:50;2.70;;;1.20;;
76475;SDS011;65308;50.078;14.854;2023-09-19T01:56:23;3.65;;;1.40;;
76475;SDS011;65308;50.078;14.854;2023-09-19T01:58:59;1.70;;;1.10;;
76475;SDS011;65308;50.078;14.854;2023-09-19T02:01:32;2.00;;;1.13;;
76475;SDS011;65308;50.078;14.854;2023-09-19T02:04:02;2.00;;;1.30;;
76475;SDS011;65308;50.078;14.854;2023-09-19T02:08:56;3.17;;;1.42;;
76475;SDS011;65308;50.078;14.854;2023-09-19T02:11:24;1.73;;;1.15;;
76475;SDS011;65308;50.078;14.854;2023-09-19T02:13:51;2.70;;;1.30;;
76475;SDS011;65308;50.078;14.854;2023-09-19T02:16:19;1.92;;;1.25;;
76475;SDS011;65308;50.078;14.854;2023-09-19T02:18:48;2.20;;;1.30;;
76475;SDS011;65308;50.078;14.854;2023-09-19T02:21:16;1.73;;;1.30;;
76475;SDS011;65308;50.078;14.854;2023-09-19T02:23:43;3.88;;;1.30;;
76475;SDS011;65308;50.078;14.854;2023-09-19T02:26:10;2.22;;;1.25;;
76475;SDS011;65308;50.078;14.854;2023-09-19T02:28:37;1.58;;;1.20;;
76475;SDS011;65308;50.078;14.854;2023-09-19T02:31:04;3.05;;;1.20;;
76475;SDS011;65308;50.078;14.854;2023-09-19T02:33:31;1.90;;;1.15;;
76475;SDS011;65308;50.078;14.854;2023-09-19T02:36:02;1.67;;;1.13;;
76475;SDS011;65308;50.078;14.854;2023-09-19T02:38:30;2.67;;;1.27;;
76475;SDS011;65308;50.078;14.854;2023-09-19T02:40:57;3.13;;;1.50;;
76475;SDS011;65308;50.078;14.854;2023-09-19T02:43:24;1.77;;;1.30;;
76475;SDS011;65308;50.078;14.854;2023-09-19T02:45:50;2.47;;;1.20;;
76475;SDS011;65308;50.078;14.854;2023-09-19T02:48:19;3.63;;;1.92;;
76475;SDS011;65308;50.078;14.854;2023-09-19T02:50:46;3.35;;;1.50;;
76475;SDS011;65308;50.078;14.854;2023-09-19T02:53:14;1.73;;;1.20;;
76475;SDS011;65308;50.078;14.854;2023-09-19T02:55:41;2.60;;;1.20;;
76475;SDS011;65308;50.078;14.854;2023-09-19T02:58:08;2.97;;;1.38;;
76475;SDS011;65308;50.078;14.854;2023-09-19T03:00:36;2.50;;;1.30;;
76475;SDS011;65308;50.078;14.854;2023-09-19T03:03:03;2.60;;;1.33;;
76475;SDS011;65308;50.078;14.854;2023-09-19T03:05:31;3.13;;;1.80;;
76475;SDS011;65308;50.078;14.854;2023-09-19T03:07:59;3.10;;;1.50;;
76475;SDS011;65308;50.078;14.854;2023-09-19T03:10:29;2.25;;;1.40;;
76475;SDS011;65308;50.078;14.854;2023-09-19T03:12:56;2.97;;;1.42;;
76475;SDS011;65308;50.078;14.854;2023-09-19T03:15:25;2.63;;;1.58;;
76475;SDS011;65308;50.078;14.854;2023-09-19T03:17:52;5.75;;;1.65;;
76475;SDS011;65308;50.078;14.854;2023-09-19T03:20:19;4.90;;;1.50;;
76475;SDS011;65308;50.078;14.854;2023-09-19T03:22:46;3.60;;;1.52;;
76475;SDS011;65308;50.078;14.854;2023-09-19T03:25:13;2.75;;;1.35;;
76475;SDS011;65308;50.078;14.854;2023-09-19T03:27:41;2.60;;;1.40;;
76475;SDS011;65308;50.078;14.854;2023-09-19T03:30:08;2.42;;;1.55;;
76475;SDS011;65308;50.078;14.854;2023-09-19T03:32:43;1.90;;;1.45;;
76475;SDS011;65308;50.078;14.854;2023-09-19T03:35:10;2.25;;;1.33;;
76475;SDS011;65308;50.078;14.854;2023-09-19T03:37:39;1.95;;;1.15;;
76475;SDS011;65308;50.078;14.854;2023-09-19T03:40:07;2.33;;;1.40;;
76475;SDS011;65308;50.078;14.854;2023-09-19T03:42:37;1.90;;;1.40;;
76475;SDS011;65308;50.078;14.854;2023-09-19T03:45:06;2.40;;;1.50;;
76475;SDS011;65308;50.078;14.854;2023-09-19T03:47:37;3.60;;;1.83;;
76475;SDS011;65308;50.078;14.854;2023-09-19T03:50:04;3.55;;;1.80;;
76475;SDS011;65308;50.078;14.854;2023-09-19T03:52:32;3.03;;;1.60;;
76475;SDS011;65308;50.078;14.854;2023-09-19T03:54:59;3.03;;;1.50;;
76475;SDS011;65308;50.078;14.854;2023-09-19T03:57:27;2.92;;;1.40;;
76475;SDS011;65308;50.078;14.854;2023-09-19T03:59:54;4.22;;;1.50;;
76475;SDS011;65308;50.078;14.854;2023-09-19T04:02:22;2.83;;;1.55;;
76475;SDS011;65308;50.078;14.854;2023-09-19T04:04:50;2.83;;;1.50;;
76475;SDS011;65308;50.078;14.854;2023-09-19T04:07:17;1.92;;;1.30;;
76475;SDS011;65308;50.078;14.854;2023-09-19T04:09:47;2.15;;;1.40;;
76475;SDS011;65308;50.078;14.854;2023-09-19T04:12:14;3.20;;;1.55;;
76475;SDS011;65308;50.078;14.854;2023-09-19T04:14:43;2.88;;;1.80;;
76475;SDS011;65308;50.078;14.854;2023-09-19T04:17:10;3.33;;;1.90;;
76475;SDS011;65308;50.078;14.854;2023-09-19T04:19:38;2.33;;;1.45;;
76475;SDS011;65308;50.078;14.854;2023-09-19T04:22:08;2.30;;;1.35;;
76475;SDS011;65308;50.078;14.854;2023-09-19T04:24:36;3.90;;;1.67;;
76475;SDS011;65308;50.078;14.854;2023-09-19T04:27:03;5.68;;;1.70;;
76475;SDS011;65308;50.078;14.854;2023-09-19T04:29:30;5.88;;;1.58;;
76475;SDS011;65308;50.078;14.854;2023-09-19T04:31:58;3.08;;;1.65;;
76475;SDS011;65308;50.078;14.854;2023-09-19T04:34:25;1.90;;;1.40;;
76475;SDS011;65308;50.078;14.854;2023-09-19T04:36:53;3.80;;;1.50;;
76475;SDS011;65308;50.078;14.854;2023-09-19T04:39:21;2.38;;;1.45;;
76475;SDS011;65308;50.078;14.854;2023-09-19T04:41:51;4.25;;;1.60;;
76475;SDS011;65308;50.078;14.854;2023-09-19T04:46:46;4.35;;;1.90;;
76475;SDS011;65308;50.078;14.854;2023-09-19T04:49:13;2.92;;;1.50;;
76475;SDS011;65308;50.078;14.854;2023-09-19T04:51:40;3.17;;;1.67;;
76475;SDS011;65308;50.078;14.854;2023-09-19T04:54:09;2.40;;;1.65;;
76475;SDS011;65308;50.078;14.854;2023-09-19T04:56:36;3.83;;;1.60;;
76475;SDS011;65308;50.078;14.854;2023-09-19T04:59:05;2.45;;;1.60;;
76475;SDS011;65308;50.078;14.854;2023-09-19T05:01:31;4.57;;;1.60;;
76475;SDS011;65308;50.078;14.854;2023-09-19T05:03:59;2.53;;;1.50;;
76475;SDS011;65308;50.078;14.854;2023-09-19T05:06:26;2.28;;;1.50;;
76475;SDS011;65308;50.078;14.854;2023-09-19T05:08:52;5.53;;;2.00;;
76475;SDS011;65308;50.078;14.854;2023-09-19T05:11:20;3.67;;;1.70;;
76475;SDS011;65308;50.078;14.854;2023-09-19T05:13:50;3.72;;;1.52;;
76475;SDS011;65308;50.078;14.854;2023-09-19T05:16:17;2.60;;;1.60;;
76475;SDS011;65308;50.078;14.854;2023-09-19T05:18:44;3.67;;;1.70;;
76475;SDS011;65308;50.078;14.854;2023-09-19T05:21:11;2.90;;;1.60;;
76475;SDS011;65308;50.078;14.854;2023-09-19T05:23:38;2.92;;;1.73;;
76475;SDS011;65308;50.078;14.854;2023-09-19T05:26:05;3.08;;;1.85;;
76475;SDS011;65308;50.078;14.854;2023-09-19T05:28:33;1.98;;;1.40;;
76475;SDS011;65308;50.078;14.854;2023-09-19T05:31:00;3.30;;;1.80;;
76475;SDS011;65308;50.078;14.854;2023-09-19T05:33:28;6.07;;;1.60;;
76475;SDS011;65308;50.078;14.854;2023-09-19T05:35:57;4.03;;;1.70;;
76475;SDS011;65308;50.078;14.854;2023-09-19T05:38:23;2.85;;;1.42;;
76475;SDS011;65308;50.078;14.854;2023-09-19T05:40:52;3.00;;;1.70;;
76475;SDS011;65308;50.078;14.854;2023-09-19T05:43:19;4.72;;;1.80;;
76475;SDS011;65308;50.078;14.854;2023-09-19T05:48:17;2.78;;;1.80;;
76475;SDS011;65308;50.078;14.854;2023-09-19T05:50:46;3.53;;;1.65;;
76475;SDS011;65308;50.078;14.854;2023-09-19T05:53:14;3.72;;;1.50;;
76475;SDS011;65308;50.078;14.854;2023-09-19T05:55:41;3.60;;;1.60;;
76475;SDS011;65308;50.078;14.854;2023-09-19T05:58:07;3.47;;;1.48;;
76475;SDS011;65308;50.078;14.854;2023-09-19T06:00:35;3.70;;;1.60;;
76475;SDS011;65308;50.078;14.854;2023-09-19T06:03:03;2.90;;;1.70;;
76475;SDS011;65308;50.078;14.854;2023-09-19T06:05:30;2.60;;;1.67;;
76475;SDS011;65308;50.078;14.854;2023-09-19T06:07:58;2.53;;;1.42;;
76475;SDS011;65308;50.078;14.854;2023-09-19T06:10:25;2.90;;;1.65;;
76475;SDS011;65308;50.078;14.854;2023-09-19T06:12:53;3.08;;;1.60;;
76475;SDS011;65308;50.078;14.854;2023-09-19T06:17:48;5.22;;;1.58;;
76475;SDS011;65308;50.078;14.854;2023-09-19T06:20:17;2.60;;;1.58;;
76475;SDS011;65308;50.078;14.854;2023-09-19T06:22:51;2.50;;;1.40;;
76475;SDS011;65308;50.078;14.854;2023-09-19T06:25:21;3.03;;;1.60;;
76475;SDS011;65308;50.078;14.854;2023-09-19T06:27:52;2.92;;;1.58;;
76475;SDS011;65308;50.078;14.854;2023-09-19T06:30:20;3.10;;;1.80;;
76475;SDS011;65308;50.078;14.854;2023-09-19T06:32:48;3.33;;;1.90;;
76475;SDS011;65308;50.078;14.854;2023-09-19T06:35:16;2.45;;;1.70;;
76475;SDS011;65308;50.078;14.854;2023-09-19T06:37:44;3.13;;;1.65;;
76475;SDS011;65308;50.078;14.854;2023-09-19T06:40:11;3.38;;;1.70;;
76475;SDS011;65308;50.078;14.854;2023-09-19T06:42:40;2.22;;;1.60;;
76475;SDS011;65308;50.078;14.854;2023-09-19T06:45:08;3.50;;;1.65;;
76475;SDS011;65308;50.078;14.854;2023-09-19T06:47:36;3.53;;;1.60;;
76475;SDS011;65308;50.078;14.854;2023-09-19T06:50:03;2.35;;;1.60;;
76475;SDS011;65308;50.078;14.854;2023-09-19T06:52:32;4.28;;;1.55;;
76475;SDS011;65308;50.078;14.854;2023-09-19T06:55:00;2.58;;;1.58;;
76475;SDS011;65308;50.078;14.854;2023-09-19T06:57:28;3.63;;;1.92;;
76475;SDS011;65308;50.078;14.854;2023-09-19T06:59:55;3.53;;;1.52;;
76475;SDS011;65308;50.078;14.854;2023-09-19T07:02:23;3.05;;;1.63;;
76475;SDS011;65308;50.078;14.854;2023-09-19T07:04:49;4.18;;;1.70;;
76475;SDS011;65308;50.078;14.854;2023-09-19T07:07:16;3.00;;;1.70;;
76475;SDS011;65308;50.078;14.854;2023-09-19T07:09:44;3.10;;;1.70;;
76475;SDS011;65308;50.078;14.854;2023-09-19T07:12:14;2.83;;;1.70;;
76475;SDS011;65308;50.078;14.854;2023-09-19T07:14:45;5.43;;;1.80;;
76475;SDS011;65308;50.078;14.854;2023-09-19T07:17:12;5.57;;;1.60;;
76475;SDS011;65308;50.078;14.854;2023-09-19T07:19:44;4.35;;;1.80;;
76475;SDS011;65308;50.078;14.854;2023-09-19T07:22:13;3.17;;;1.60;;
76475;SDS011;65308;50.078;14.854;2023-09-19T07:24:40;3.47;;;2.00;;
76475;SDS011;65308;50.078;14.854;2023-09-19T07:27:09;3.58;;;1.75;;
76475;SDS011;65308;50.078;14.854;2023-09-19T07:29:36;4.03;;;2.00;;
76475;SDS011;65308;50.078;14.854;2023-09-19T07:32:03;4.97;;;1.80;;
76475;SDS011;65308;50.078;14.854;2023-09-19T07:34:31;3.75;;;1.80;;
76475;SDS011;65308;50.078;14.854;2023-09-19T07:36:58;3.88;;;1.95;;
76475;SDS011;65308;50.078;14.854;2023-09-19T07:39:25;2.45;;;1.42;;
76475;SDS011;65308;50.078;14.854;2023-09-19T07:41:52;3.95;;;1.90;;
76475;SDS011;65308;50.078;14.854;2023-09-19T07:44:21;3.50;;;1.80;;
76475;SDS011;65308;50.078;14.854;2023-09-19T07:46:51;3.33;;;1.52;;
76475;SDS011;65308;50.078;14.854;2023-09-19T07:49:20;3.70;;;1.73;;
76475;SDS011;65308;50.078;14.854;2023-09-19T07:51:46;3.88;;;2.83;;
76475;SDS011;65308;50.078;14.854;2023-09-19T07:54:13;4.18;;;1.80;;
76475;SDS011;65308;50.078;14.854;2023-09-19T07:56:45;3.25;;;1.70;;
76475;SDS011;65308;50.078;14.854;2023-09-19T07:59:12;3.88;;;1.80;;
76475;SDS011;65308;50.078;14.854;2023-09-19T08:01:45;3.63;;;2.15;;
76475;SDS011;65308;50.078;14.854;2023-09-19T08:04:16;3.20;;;1.83;;
76475;SDS011;65308;50.078;14.854;2023-09-19T08:06:44;4.95;;;1.80;;
76475;SDS011;65308;50.078;14.854;2023-09-19T08:09:11;3.20;;;1.85;;
76475;SDS011;65308;50.078;14.854;2023-09-19T08:11:45;2.58;;;1.80;;
76475;SDS011;65308;50.078;14.854;2023-09-19T08:14:12;3.97;;;1.73;;
76475;SDS011;65308;50.078;14.854;2023-09-19T08:16:45;5.00;;;2.03;;
76475;SDS011;65308;50.078;14.854;2023-09-19T08:19:12;3.22;;;1.92;;
76475;SDS011;65308;50.078;14.854;2023-09-19T08:21:40;2.97;;;1.83;;
76475;SDS011;65308;50.078;14.854;2023-09-19T08:24:10;3.83;;;1.70;;
76475;SDS011;65308;50.078;14.854;2023-09-19T08:26:37;4.00;;;1.80;;
76475;SDS011;65308;50.078;14.854;2023-09-19T08:29:04;4.40;;;2.25;;
76475;SDS011;65308;50.078;14.854;2023-09-19T08:31:32;3.67;;;1.75;;
76475;SDS011;65308;50.078;14.854;2023-09-19T08:34:01;3.10;;;1.70;;
76475;SDS011;65308;50.078;14.854;2023-09-19T08:36:32;3.03;;;1.95;;
76475;SDS011;65308;50.078;14.854;2023-09-19T08:38:59;2.72;;;1.73;;
76475;SDS011;65308;50.078;14.854;2023-09-19T08:41:26;3.97;;;1.88;;
76475;SDS011;65308;50.078;14.854;2023-09-19T08:46:20;3.05;;;1.67;;
76475;SDS011;65308;50.078;14.854;2023-09-19T08:48:51;5.90;;;2.00;;
76475;SDS011;65308;50.078;14.854;2023-09-19T08:51:26;4.15;;;1.98;;
76475;SDS011;65308;50.078;14.854;2023-09-19T08:53:59;3.78;;;1.98;;
76475;SDS011;65308;50.078;14.854;2023-09-19T08:56:30;3.30;;;1.60;;
76475;SDS011;65308;50.078;14.854;2023-09-19T08:58:59;3.97;;;1.70;;
76475;SDS011;65308;50.078;14.854;2023-09-19T09:01:29;3.90;;;2.00;;
76475;SDS011;65308;50.078;14.854;2023-09-19T09:03:57;3.28;;;1.88;;
76475;SDS011;65308;50.078;14.854;2023-09-19T09:06:26;4.30;;;2.05;;
76475;SDS011;65308;50.078;14.854;2023-09-19T09:08:54;3.25;;;1.70;;
76475;SDS011;65308;50.078;14.854;2023-09-19T09:11:21;3.30;;;1.98;;
76475;SDS011;65308;50.078;14.854;2023-09-19T09:13:49;3.45;;;1.80;;
76475;SDS011;65308;50.078;14.854;2023-09-19T09:18:44;2.92;;;1.80;;
76475;SDS011;65308;50.078;14.854;2023-09-19T09:21:11;3.00;;;1.70;;
76475;SDS011;65308;50.078;14.854;2023-09-19T09:26:12;3.30;;;1.83;;
76475;SDS011;65308;50.078;14.854;2023-09-19T09:28:46;3.60;;;1.92;;
76475;SDS011;65308;50.078;14.854;2023-09-19T09:31:26;3.00;;;1.85;;
76475;SDS011;65308;50.078;14.854;2023-09-19T09:34:22;3.15;;;1.60;;
76475;SDS011;65308;50.078;14.854;2023-09-19T09:36:59;3.97;;;1.80;;
76475;SDS011;65308;50.078;14.854;2023-09-19T09:39:31;3.00;;;1.60;;
76475;SDS011;65308;50.078;14.854;2023-09-19T09:42:01;3.13;;;1.60;;
76475;SDS011;65308;50.078;14.854;2023-09-19T09:44:31;3.38;;;1.80;;
76475;SDS011;65308;50.078;14.854;2023-09-19T09:46:58;2.38;;;1.60;;
76475;SDS011;65308;50.078;14.854;2023-09-19T09:49:47;3.28;;;1.80;;
76475;SDS011;65308;50.078;14.854;2023-09-19T09:52:23;3.53;;;1.80;;
76475;SDS011;65308;50.078;14.854;2023-09-19T09:55:00;2.78;;;1.67;;
76475;SDS011;65308;50.078;14.854;2023-09-19T09:57:32;2.92;;;1.80;;
76475;SDS011;65308;50.078;14.854;2023-09-19T09:59:59;3.30;;;1.75;;
76475;SDS011;65308;50.078;14.854;2023-09-19T10:02:41;4.32;;;1.85;;
76475;SDS011;65308;50.078;14.854;2023-09-19T10:05:12;3.00;;;1.60;;
76475;SDS011;65308;50.078;14.854;2023-09-19T10:07:46;3.85;;;2.00;;
76475;SDS011;65308;50.078;14.854;2023-09-19T10:13:20;3.78;;;1.98;;
76475;SDS011;65308;50.078;14.854;2023-09-19T10:15:49;3.10;;;1.73;;
76475;SDS011;65308;50.078;14.854;2023-09-19T10:18:19;2.13;;;1.65;;
76475;SDS011;65308;50.078;14.854;2023-09-19T10:20:47;3.50;;;1.60;;
76475;SDS011;65308;50.078;14.854;2023-09-19T10:23:16;2.40;;;1.70;;
76475;SDS011;65308;50.078;14.854;2023-09-19T10:25:47;2.97;;;1.83;;
76475;SDS011;65308;50.078;14.854;2023-09-19T10:28:15;3.83;;;1.77;;
76475;SDS011;65308;50.078;14.854;2023-09-19T10:30:48;4.75;;;1.90;;
76475;SDS011;65308;50.078;14.854;2023-09-19T10:33:18;3.08;;;1.83;;
76475;SDS011;65308;50.078;14.854;2023-09-19T10:35:53;3.22;;;1.88;;
76475;SDS011;65308;50.078;14.854;2023-09-19T10:38:23;3.30;;;1.95;;
76475;SDS011;65308;50.078;14.854;2023-09-19T10:40:51;4.13;;;1.90;;
76475;SDS011;65308;50.078;14.854;2023-09-19T10:43:20;2.33;;;1.70;;
76475;SDS011;65308;50.078;14.854;2023-09-19T10:45:55;3.13;;;1.83;;
76475;SDS011;65308;50.078;14.854;2023-09-19T10:48:29;4.88;;;1.80;;
76475;SDS011;65308;50.078;14.854;2023-09-19T10:50:58;2.22;;;1.67;;
76475;SDS011;65308;50.078;14.854;2023-09-19T10:53:40;2.25;;;1.70;;
76475;SDS011;65308;50.078;14.854;2023-09-19T10:56:13;2.97;;;1.70;;
76475;SDS011;65308;50.078;14.854;2023-09-19T10:58:44;2.20;;;1.60;;
76475;SDS011;65308;50.078;14.854;2023-09-19T11:01:19;3.13;;;1.73;;
76475;SDS011;65308;50.078;14.854;2023-09-19T11:06:22;2.28;;;1.60;;
76475;SDS011;65308;50.078;14.854;2023-09-19T11:08:50;4.70;;;1.70;;
76475;SDS011;65308;50.078;14.854;2023-09-19T11:11:41;2.80;;;1.70;;
76475;SDS011;65308;50.078;14.854;2023-09-19T11:14:39;3.65;;;1.70;;
76475;SDS011;65308;50.078;14.854;2023-09-19T11:20:22;3.72;;;1.88;;
76475;SDS011;65308;50.078;14.854;2023-09-19T11:23:22;2.78;;;1.83;;
76475;SDS011;65308;50.078;14.854;2023-09-19T11:25:51;2.38;;;1.52;;
76475;SDS011;65308;50.078;14.854;2023-09-19T11:28:29;4.35;;;1.95;;
76475;SDS011;65308;50.078;14.854;2023-09-19T11:31:00;2.85;;;1.90;;
76475;SDS011;65308;50.078;14.854;2023-09-19T11:40:13;3.53;;;1.80;;
76475;SDS011;65308;50.078;14.854;2023-09-19T11:42:42;4.80;;;2.05;;
76475;SDS011;65308;50.078;14.854;2023-09-19T11:48:26;5.25;;;2.50;;
76475;SDS011;65308;50.078;14.854;2023-09-19T11:50:56;4.90;;;1.83;;
76475;SDS011;65308;50.078;14.854;2023-09-19T11:53:24;3.70;;;1.70;;
76475;SDS011;65308;50.078;14.854;2023-09-19T11:56:01;2.80;;;1.80;;
76475;SDS011;65308;50.078;14.854;2023-09-19T11:58:29;2.70;;;1.80;;
76475;SDS011;65308;50.078;14.854;2023-09-19T12:00:58;3.65;;;1.90;;
76475;SDS011;65308;50.078;14.854;2023-09-19T12:03:29;2.38;;;1.70;;
76475;SDS011;65308;50.078;14.854;2023-09-19T12:05:59;4.03;;;1.85;;
76475;SDS011;65308;50.078;14.854;2023-09-19T12:08:27;3.10;;;1.90;;
76475;SDS011;65308;50.078;14.854;2023-09-19T12:10:55;3.08;;;1.88;;
76475;SDS011;65308;50.078;14.854;2023-09-19T12:13:22;3.03;;;2.20;;
76475;SDS011;65308;50.078;14.854;2023-09-19T12:15:50;2.70;;;1.73;;
76475;SDS011;65308;50.078;14.854;2023-09-19T12:18:27;2.58;;;1.80;;
76475;SDS011;65308;50.078;14.854;2023-09-19T12:20:55;5.68;;;1.80;;
76475;SDS011;65308;50.078;14.854;2023-09-19T12:23:24;4.20;;;1.77;;
76475;SDS011;65308;50.078;14.854;2023-09-19T12:25:52;3.05;;;1.67;;
76475;SDS011;65308;50.078;14.854;2023-09-19T12:28:22;2.72;;;1.75;;
76475;SDS011;65308;50.078;14.854;2023-09-19T12:31:05;2.70;;;1.77;;
76475;SDS011;65308;50.078;14.854;2023-09-19T12:36:19;4.10;;;1.70;;
76475;SDS011;65308;50.078;14.854;2023-09-19T12:38:51;4.15;;;1.50;;
76475;SDS011;65308;50.078;14.854;2023-09-19T12:41:20;2.50;;;1.70;;
76475;SDS011;65308;50.078;14.854;2023-09-19T12:43:56;2.58;;;1.52;;
76475;SDS011;65308;50.078;14.854;2023-09-19T12:46:25;3.38;;;1.67;;
76475;SDS011;65308;50.078;14.854;2023-09-19T12:51:44;3.33;;;1.65;;
76475;SDS011;65308;50.078;14.854;2023-09-19T12:54:14;2.83;;;1.58;;
76475;SDS011;65308;50.078;14.854;2023-09-19T12:56:42;2.47;;;1.48;;
76475;SDS011;65308;50.078;14.854;2023-09-19T13:02:32;2.25;;;1.63;;
76475;SDS011;65308;50.078;14.854;2023-09-19T13:04:59;2.97;;;1.70;;
76475;SDS011;65308;50.078;14.854;2023-09-19T13:07:41;3.15;;;1.60;;
76475;SDS011;65308;50.078;14.854;2023-09-19T13:10:13;2.80;;;1.70;;
76475;SDS011;65308;50.078;14.854;2023-09-19T13:12:41;2.08;;;1.50;;
76475;SDS011;65308;50.078;14.854;2023-09-19T13:15:13;2.42;;;1.50;;
76475;SDS011;65308;50.078;14.854;2023-09-19T13:17:44;2.95;;;1.58;;
76475;SDS011;65308;50.078;14.854;2023-09-19T13:20:22;2.33;;;1.80;;
76475;SDS011;65308;50.078;14.854;2023-09-19T13:25:32;3.50;;;1.90;;
76475;SDS011;65308;50.078;14.854;2023-09-19T13:28:00;3.58;;;1.73;;
76475;SDS011;65308;50.078;14.854;2023-09-19T13:30:29;3.80;;;1.95;;
76475;SDS011;65308;50.078;14.854;2023-09-19T13:33:05;2.05;;;1.50;;
76475;SDS011;65308;50.078;14.854;2023-09-19T13:35:33;3.22;;;1.60;;
76475;SDS011;65308;50.078;14.854;2023-09-19T13:37:59;4.38;;;1.85;;
76475;SDS011;65308;50.078;14.854;2023-09-19T13:40:26;3.67;;;1.60;;
76475;SDS011;65308;50.078;14.854;2023-09-19T13:42:57;2.83;;;1.88;;
76475;SDS011;65308;50.078;14.854;2023-09-19T13:45:24;4.78;;;1.92;;
76475;SDS011;65308;50.078;14.854;2023-09-19T13:47:52;2.70;;;1.80;;
76475;SDS011;65308;50.078;14.854;2023-09-19T13:50:18;2.67;;;1.63;;
76475;SDS011;65308;50.078;14.854;2023-09-19T13:52:49;3.58;;;1.70;;
76475;SDS011;65308;50.078;14.854;2023-09-19T13:55:16;4.18;;;1.75;;
76475;SDS011;65308;50.078;14.854;2023-09-19T13:57:45;2.35;;;1.60;;
76475;SDS011;65308;50.078;14.854;2023-09-19T14:00:14;3.30;;;1.75;;
76475;SDS011;65308;50.078;14.854;2023-09-19T14:02:41;3.10;;;1.83;;
76475;SDS011;65308;50.078;14.854;2023-09-19T14:05:09;2.92;;;1.73;;
76475;SDS011;65308;50.078;14.854;2023-09-19T14:07:39;4.43;;;1.70;;
76475;SDS011;65308;50.078;14.854;2023-09-19T14:10:06;3.15;;;1.67;;
76475;SDS011;65308;50.078;14.854;2023-09-19T14:12:35;2.50;;;1.50;;
76475;SDS011;65308;50.078;14.854;2023-09-19T14:15:02;3.58;;;1.50;;
76475;SDS011;65308;50.078;14.854;2023-09-19T14:19:58;2.53;;;1.80;;
76475;SDS011;65308;50.078;14.854;2023-09-19T14:22:25;3.05;;;1.60;;
76475;SDS011;65308;50.078;14.854;2023-09-19T14:24:51;2.40;;;1.40;;
76475;SDS011;65308;50.078;14.854;2023-09-19T14:27:18;1.50;;;1.33;;
76475;SDS011;65308;50.078;14.854;2023-09-19T14:29:45;3.90;;;1.70;;
76475;SDS011;65308;50.078;14.854;2023-09-19T14:32:12;2.95;;;1.65;;
76475;SDS011;65308;50.078;14.854;2023-09-19T14:34:40;2.35;;;1.50;;
76475;SDS011;65308;50.078;14.854;2023-09-19T14:37:08;2.92;;;1.70;;
76475;SDS011;65308;50.078;14.854;2023-09-19T14:39:36;3.00;;;1.50;;
76475;SDS011;65308;50.078;14.854;2023-09-19T14:42:03;2.95;;;1.50;;
76475;SDS011;65308;50.078;14.854;2023-09-19T14:44:30;2.10;;;1.50;;
76475;SDS011;65308;50.078;14.854;2023-09-19T14:46:57;3.38;;;1.60;;
76475;SDS011;65308;50.078;14.854;2023-09-19T14:49:24;2.92;;;1.40;;
76475;SDS011;65308;50.078;14.854;2023-09-19T14:51:55;3.38;;;1.60;;
76475;SDS011;65308;50.078;14.854;2023-09-19T14:54:21;3.40;;;1.60;;
76475;SDS011;65308;50.078;14.854;2023-09-19T14:56:49;3.15;;;1.60;;
76475;SDS011;65308;50.078;14.854;2023-09-19T14:59:29;2.42;;;1.48;;
76475;SDS011;65308;50.078;14.854;2023-09-19T15:01:57;2.72;;;1.58;;
76475;SDS011;65308;50.078;14.854;2023-09-19T15:04:24;2.33;;;1.58;;
76475;SDS011;65308;50.078;14.854;2023-09-19T15:06:51;2.90;;;1.70;;
76475;SDS011;65308;50.078;14.854;2023-09-19T15:09:21;2.42;;;1.35;;
76475;SDS011;65308;50.078;14.854;2023-09-19T15:11:51;4.13;;;1.58;;
76475;SDS011;65308;50.078;14.854;2023-09-19T15:14:18;2.92;;;1.50;;
76475;SDS011;65308;50.078;14.854;2023-09-19T15:16:46;2.00;;;1.40;;
76475;SDS011;65308;50.078;14.854;2023-09-19T15:19:13;2.58;;;1.52;;
76475;SDS011;65308;50.078;14.854;2023-09-19T15:21:40;2.88;;;1.80;;
76475;SDS011;65308;50.078;14.854;2023-09-19T15:24:07;4.25;;;1.70;;
76475;SDS011;65308;50.078;14.854;2023-09-19T15:26:36;2.60;;;1.63;;
76475;SDS011;65308;50.078;14.854;2023-09-19T15:29:04;8.98;;;1.60;;
76475;SDS011;65308;50.078;14.854;2023-09-19T15:31:32;2.35;;;1.40;;
76475;SDS011;65308;50.078;14.854;2023-09-19T15:34:01;2.95;;;1.50;;
76475;SDS011;65308;50.078;14.854;2023-09-19T15:38:56;2.50;;;1.58;;
76475;SDS011;65308;50.078;14.854;2023-09-19T15:41:25;3.08;;;1.75;;
76475;SDS011;65308;50.078;14.854;2023-09-19T15:43:54;2.28;;;1.50;;